sensor_id;sensor_type;location;lat;lon;timestamp;temperature;humidity
18930;DHT22;43305;52.186;5.598;2023-12-20T00:02:08;6.30;99.90
18930;DHT22;43305;52.186;5.598;2023-12-20T00:04:35;6.30;99.90
18930;DHT22;43305;52.186;5.598;2023-12-20T00:07:01;6.30;99.90
18930;DHT22;43305;52.186;5.598;2023-12-20T00:09:29;6.20;99.90
18930;DHT22;43305;52.186;5.598;2023-12-20T00:11:56;6.20;99.90
18930;DHT22;43305;52.186;5.598;2023-12-20T00:14:23;6.20;99.90
18930;DHT22;43305;52.186;5.598;2023-12-20T00:16:50;6.20;99.90
18930;DHT22;43305;52.186;5.598;2023-12-20T00:19:18;6.10;99.90
18930;DHT22;43305;52.186;5.598;2023-12-20T00:21:44;6.10;99.90
18930;DHT22;43305;52.186;5.598;2023-12-20T00:24:13;6.10;99.90
18930;DHT22;43305;52.186;5.598;2023-12-20T00:26:42;6.10;99.90
18930;DHT22;43305;52.186;5.598;2023-12-20T00:29:09;6.10;99.90
18930;DHT22;43305;52.186;5.598;2023-12-20T00:31:35;6.10;99.90
18930;DHT22;43305;52.186;5.598;2023-12-20T00:34:02;6.00;99.90
18930;DHT22;43305;52.186;5.598;2023-12-20T00:36:29;6.10;99.90
18930;DHT22;43305;52.186;5.598;2023-12-20T00:38:56;6.00;99.90
18930;DHT22;43305;52.186;5.598;2023-12-20T00:41:23;6.00;99.90
18930;DHT22;43305;52.186;5.598;2023-12-20T00:43:53;6.00;99.90
18930;DHT22;43305;52.186;5.598;2023-12-20T00:46:20;5.90;99.90
18930;DHT22;43305;52.186;5.598;2023-12-20T00:48:49;6.00;99.90
18930;DHT22;43305;52.186;5.598;2023-12-20T00:51:17;5.90;99.90
18930;DHT22;43305;52.186;5.598;2023-12-20T00:53:43;5.90;99.90
18930;DHT22;43305;52.186;5.598;2023-12-20T00:56:10;5.90;99.90
18930;DHT22;43305;52.186;5.598;2023-12-20T00:58:37;5.90;99.90
18930;DHT22;43305;52.186;5.598;2023-12-20T01:01:04;5.90;99.90
18930;DHT22;43305;52.186;5.598;2023-12-20T01:03:31;5.90;99.90
18930;DHT22;43305;52.186;5.598;2023-12-20T01:05:57;5.90;99.90
18930;DHT22;43305;52.186;5.598;2023-12-20T01:08:26;5.80;99.90
18930;DHT22;43305;52.186;5.598;2023-12-20T01:10:53;5.80;99.90
18930;DHT22;43305;52.186;5.598;2023-12-20T01:13:21;5.90;99.90
18930;DHT22;43305;52.186;5.598;2023-12-20T01:15:48;5.80;99.90
18930;DHT22;43305;52.186;5.598;2023-12-20T01:18:16;5.80;99.90
18930;DHT22;43305;52.186;5.598;2023-12-20T01:20:43;5.80;99.90
18930;DHT22;43305;52.186;5.598;2023-12-20T01:23:10;5.80;99.90
18930;DHT22;43305;52.186;5.598;2023-12-20T01:25:37;5.80;99.90
18930;DHT22;43305;52.186;5.598;2023-12-20T01:28:06;5.70;99.90
18930;DHT22;43305;52.186;5.598;2023-12-20T01:30:33;5.70;99.90
18930;DHT22;43305;52.186;5.598;2023-12-20T01:33:00;5.70;99.90
18930;DHT22;43305;52.186;5.598;2023-12-20T01:35:29;5.70;99.90
18930;DHT22;43305;52.186;5.598;2023-12-20T01:37:55;5.70;99.90
18930;DHT22;43305;52.186;5.598;2023-12-20T01:40:23;5.70;99.90
18930;DHT22;43305;52.186;5.598;2023-12-20T01:42:58;5.70;99.90
18930;DHT22;43305;52.186;5.598;2023-12-20T01:45:24;5.70;99.90
18930;DHT22;43305;52.186;5.598;2023-12-20T01:47:52;5.70;99.90
18930;DHT22;43305;52.186;5.598;2023-12-20T01:50:19;5.70;99.90
18930;DHT22;43305;52.186;5.598;2023-12-20T01:52:48;5.70;99.90
18930;DHT22;43305;52.186;5.598;2023-12-20T01:55:18;5.70;99.90
18930;DHT22;43305;52.186;5.598;2023-12-20T01:57:45;5.70;99.90
18930;DHT22;43305;52.186;5.598;2023-12-20T02:00:13;5.70;99.90
18930;DHT22;43305;52.186;5.598;2023-12-20T02:02:41;5.60;99.90
18930;DHT22;43305;52.186;5.598;2023-12-20T02:05:10;5.60;99.90
18930;DHT22;43305;52.186;5.598;2023-12-20T02:07:37;5.60;99.90
18930;DHT22;43305;52.186;5.598;2023-12-20T02:10:05;5.60;99.90
18930;DHT22;43305;52.186;5.598;2023-12-20T02:12:32;5.60;99.90
18930;DHT22;43305;52.186;5.598;2023-12-20T02:14:59;5.60;99.90
18930;DHT22;43305;52.186;5.598;2023-12-20T02:17:26;5.60;99.90
18930;DHT22;43305;52.186;5.598;2023-12-20T02:19:53;5.60;99.90
18930;DHT22;43305;52.186;5.598;2023-12-20T02:22:22;5.60;99.90
18930;DHT22;43305;52.186;5.598;2023-12-20T02:24:48;5.70;99.90
18930;DHT22;43305;52.186;5.598;2023-12-20T02:27:15;5.70;99.90
18930;DHT22;43305;52.186;5.598;2023-12-20T02:29:44;5.80;99.90
18930;DHT22;43305;52.186;5.598;2023-12-20T02:32:11;5.80;99.90
18930;DHT22;43305;52.186;5.598;2023-12-20T02:34:38;5.80;99.90
18930;DHT22;43305;52.186;5.598;2023-12-20T02:37:05;5.80;99.90
18930;DHT22;43305;52.186;5.598;2023-12-20T02:39:33;5.90;99.90
18930;DHT22;43305;52.186;5.598;2023-12-20T02:42:00;5.80;99.90
18930;DHT22;43305;52.186;5.598;2023-12-20T02:44:26;5.80;99.90
18930;DHT22;43305;52.186;5.598;2023-12-20T02:46:53;5.80;99.90
18930;DHT22;43305;52.186;5.598;2023-12-20T02:49:20;5.70;99.90
18930;DHT22;43305;52.186;5.598;2023-12-20T02:51:49;5.70;99.90
18930;DHT22;43305;52.186;5.598;2023-12-20T02:54:18;5.70;99.90
18930;DHT22;43305;52.186;5.598;2023-12-20T02:56:47;5.70;99.90
18930;DHT22;43305;52.186;5.598;2023-12-20T02:59:14;5.60;99.90
18930;DHT22;43305;52.186;5.598;2023-12-20T03:01:42;5.60;99.90
18930;DHT22;43305;52.186;5.598;2023-12-20T03:04:09;5.60;99.90
18930;DHT22;43305;52.186;5.598;2023-12-20T03:06:36;5.60;99.90
18930;DHT22;43305;52.186;5.598;2023-12-20T03:09:03;5.70;99.90
18930;DHT22;43305;52.186;5.598;2023-12-20T03:11:30;5.60;99.90
18930;DHT22;43305;52.186;5.598;2023-12-20T03:13:58;5.60;99.90
18930;DHT22;43305;52.186;5.598;2023-12-20T03:16:25;5.60;99.90
18930;DHT22;43305;52.186;5.598;2023-12-20T03:18:51;5.70;99.90
18930;DHT22;43305;52.186;5.598;2023-12-20T03:21:18;5.60;99.90
18930;DHT22;43305;52.186;5.598;2023-12-20T03:23:45;5.60;99.90
18930;DHT22;43305;52.186;5.598;2023-12-20T03:26:12;5.70;99.90
18930;DHT22;43305;52.186;5.598;2023-12-20T03:28:39;5.70;99.90
18930;DHT22;43305;52.186;5.598;2023-12-20T03:31:09;5.80;99.90
18930;DHT22;43305;52.186;5.598;2023-12-20T03:33:36;5.80;99.90
18930;DHT22;43305;52.186;5.598;2023-12-20T03:36:03;5.80;99.90
18930;DHT22;43305;52.186;5.598;2023-12-20T03:38:30;5.80;99.90
18930;DHT22;43305;52.186;5.598;2023-12-20T03:40:57;5.80;99.90
18930;DHT22;43305;52.186;5.598;2023-12-20T03:43:23;5.90;99.90
18930;DHT22;43305;52.186;5.598;2023-12-20T03:45:53;6.00;99.90
18930;DHT22;43305;52.186;5.598;2023-12-20T03:48:24;6.00;99.90
18930;DHT22;43305;52.186;5.598;2023-12-20T03:50:53;6.00;99.90
18930;DHT22;43305;52.186;5.598;2023-12-20T03:53:23;6.00;99.90
18930;DHT22;43305;52.186;5.598;2023-12-20T03:55:50;6.10;99.90
18930;DHT22;43305;52.186;5.598;2023-12-20T03:58:19;6.10;99.90
18930;DHT22;43305;52.186;5.598;2023-12-20T04:00:49;6.10;99.90
18930;DHT22;43305;52.186;5.598;2023-12-20T04:03:18;6.10;99.90
18930;DHT22;43305;52.186;5.598;2023-12-20T04:05:46;6.20;99.90
18930;DHT22;43305;52.186;5.598;2023-12-20T04:08:13;6.20;99.90
18930;DHT22;43305;52.186;5.598;2023-12-20T04:10:40;6.20;99.90
18930;DHT22;43305;52.186;5.598;2023-12-20T04:13:06;6.30;99.90
18930;DHT22;43305;52.186;5.598;2023-12-20T04:15:33;6.30;99.90
18930;DHT22;43305;52.186;5.598;2023-12-20T04:18:00;6.30;99.90
18930;DHT22;43305;52.186;5.598;2023-12-20T04:20:26;6.40;99.90
18930;DHT22;43305;52.186;5.598;2023-12-20T04:22:55;6.40;99.90
18930;DHT22;43305;52.186;5.598;2023-12-20T04:25:21;6.40;99.90
18930;DHT22;43305;52.186;5.598;2023-12-20T04:27:48;6.40;99.90
18930;DHT22;43305;52.186;5.598;2023-12-20T04:30:15;6.50;99.90
18930;DHT22;43305;52.186;5.598;2023-12-20T04:32:42;6.50;99.90
18930;DHT22;43305;52.186;5.598;2023-12-20T04:35:08;6.60;99.90
18930;DHT22;43305;52.186;5.598;2023-12-20T04:37:35;6.60;99.90
18930;DHT22;43305;52.186;5.598;2023-12-20T04:40:07;6.60;99.90
18930;DHT22;43305;52.186;5.598;2023-12-20T04:42:34;6.70;99.90
18930;DHT22;43305;52.186;5.598;2023-12-20T04:45:01;6.70;99.90
18930;DHT22;43305;52.186;5.598;2023-12-20T04:47:28;6.70;99.90
18930;DHT22;43305;52.186;5.598;2023-12-20T04:49:55;6.80;99.90
18930;DHT22;43305;52.186;5.598;2023-12-20T04:52:22;6.80;99.90
18930;DHT22;43305;52.186;5.598;2023-12-20T04:54:49;6.80;99.90
18930;DHT22;43305;52.186;5.598;2023-12-20T04:57:20;6.80;99.90
18930;DHT22;43305;52.186;5.598;2023-12-20T04:59:49;6.80;99.90
18930;DHT22;43305;52.186;5.598;2023-12-20T05:02:17;6.80;99.90
18930;DHT22;43305;52.186;5.598;2023-12-20T05:04:43;6.80;99.90
18930;DHT22;43305;52.186;5.598;2023-12-20T05:07:10;6.80;99.90
18930;DHT22;43305;52.186;5.598;2023-12-20T05:09:37;6.80;99.90
18930;DHT22;43305;52.186;5.598;2023-12-20T05:12:04;6.90;99.90
18930;DHT22;43305;52.186;5.598;2023-12-20T05:14:33;6.90;99.90
18930;DHT22;43305;52.186;5.598;2023-12-20T05:17:00;6.90;99.90
18930;DHT22;43305;52.186;5.598;2023-12-20T05:19:29;6.90;99.90
18930;DHT22;43305;52.186;5.598;2023-12-20T05:21:56;7.00;99.90
18930;DHT22;43305;52.186;5.598;2023-12-20T05:24:22;7.00;99.90
18930;DHT22;43305;52.186;5.598;2023-12-20T05:26:49;7.00;99.90
18930;DHT22;43305;52.186;5.598;2023-12-20T05:29:22;7.00;99.90
18930;DHT22;43305;52.186;5.598;2023-12-20T05:31:53;7.10;99.90
18930;DHT22;43305;52.186;5.598;2023-12-20T05:34:23;7.10;99.90
18930;DHT22;43305;52.186;5.598;2023-12-20T05:36:50;7.10;99.90
18930;DHT22;43305;52.186;5.598;2023-12-20T05:39:17;7.10;99.90
18930;DHT22;43305;52.186;5.598;2023-12-20T05:41:44;7.10;99.90
18930;DHT22;43305;52.186;5.598;2023-12-20T05:44:11;7.10;99.90
18930;DHT22;43305;52.186;5.598;2023-12-20T05:46:38;7.20;99.90
18930;DHT22;43305;52.186;5.598;2023-12-20T05:49:07;7.10;99.90
18930;DHT22;43305;52.186;5.598;2023-12-20T05:51:33;7.20;99.90
18930;DHT22;43305;52.186;5.598;2023-12-20T05:54:00;7.20;99.90
18930;DHT22;43305;52.186;5.598;2023-12-20T05:56:27;7.20;99.90
18930;DHT22;43305;52.186;5.598;2023-12-20T05:58:54;7.20;99.90
18930;DHT22;43305;52.186;5.598;2023-12-20T06:01:24;7.20;99.90
18930;DHT22;43305;52.186;5.598;2023-12-20T06:03:53;7.20;99.90
18930;DHT22;43305;52.186;5.598;2023-12-20T06:06:21;7.20;99.90
18930;DHT22;43305;52.186;5.598;2023-12-20T06:08:48;7.20;99.90
18930;DHT22;43305;52.186;5.598;2023-12-20T06:11:15;7.20;99.90
18930;DHT22;43305;52.186;5.598;2023-12-20T06:13:42;7.20;99.90
18930;DHT22;43305;52.186;5.598;2023-12-20T06:16:09;7.30;99.90
18930;DHT22;43305;52.186;5.598;2023-12-20T06:18:35;7.30;99.90
18930;DHT22;43305;52.186;5.598;2023-12-20T06:21:05;7.30;99.90
18930;DHT22;43305;52.186;5.598;2023-12-20T06:23:34;7.30;99.90
18930;DHT22;43305;52.186;5.598;2023-12-20T06:26:01;7.30;99.90
18930;DHT22;43305;52.186;5.598;2023-12-20T06:28:28;7.30;99.90
18930;DHT22;43305;52.186;5.598;2023-12-20T06:30:55;7.30;99.90
18930;DHT22;43305;52.186;5.598;2023-12-20T06:33:22;7.30;99.90
18930;DHT22;43305;52.186;5.598;2023-12-20T06:35:49;7.30;99.90
18930;DHT22;43305;52.186;5.598;2023-12-20T06:38:19;7.40;99.90
18930;DHT22;43305;52.186;5.598;2023-12-20T06:40:48;7.40;99.90
18930;DHT22;43305;52.186;5.598;2023-12-20T06:43:15;7.40;99.90
18930;DHT22;43305;52.186;5.598;2023-12-20T06:45:42;7.40;99.90
18930;DHT22;43305;52.186;5.598;2023-12-20T06:48:08;7.40;99.90
18930;DHT22;43305;52.186;5.598;2023-12-20T06:50:37;7.50;99.90
18930;DHT22;43305;52.186;5.598;2023-12-20T06:53:05;7.40;99.90
18930;DHT22;43305;52.186;5.598;2023-12-20T06:55:33;7.40;99.90
18930;DHT22;43305;52.186;5.598;2023-12-20T06:58:02;7.40;99.90
18930;DHT22;43305;52.186;5.598;2023-12-20T07:00:32;7.50;99.90
18930;DHT22;43305;52.186;5.598;2023-12-20T07:03:00;7.40;99.90
18930;DHT22;43305;52.186;5.598;2023-12-20T07:05:27;7.50;99.90
18930;DHT22;43305;52.186;5.598;2023-12-20T07:07:53;7.50;99.90
18930;DHT22;43305;52.186;5.598;2023-12-20T07:10:23;7.50;99.90
18930;DHT22;43305;52.186;5.598;2023-12-20T07:12:51;7.50;99.90
18930;DHT22;43305;52.186;5.598;2023-12-20T07:15:22;7.50;99.90
18930;DHT22;43305;52.186;5.598;2023-12-20T07:17:48;7.50;99.90
18930;DHT22;43305;52.186;5.598;2023-12-20T07:20:15;7.50;99.90
18930;DHT22;43305;52.186;5.598;2023-12-20T07:22:42;7.50;99.90
18930;DHT22;43305;52.186;5.598;2023-12-20T07:25:09;7.60;99.90
18930;DHT22;43305;52.186;5.598;2023-12-20T07:27:36;7.60;99.90
18930;DHT22;43305;52.186;5.598;2023-12-20T07:30:03;7.60;99.90
18930;DHT22;43305;52.186;5.598;2023-12-20T07:32:32;7.60;99.90
18930;DHT22;43305;52.186;5.598;2023-12-20T07:34:58;7.70;99.90
18930;DHT22;43305;52.186;5.598;2023-12-20T07:37:25;7.70;99.90
18930;DHT22;43305;52.186;5.598;2023-12-20T07:39:52;7.70;99.90
18930;DHT22;43305;52.186;5.598;2023-12-20T07:42:22;7.70;99.90
18930;DHT22;43305;52.186;5.598;2023-12-20T07:44:48;7.70;99.90
18930;DHT22;43305;52.186;5.598;2023-12-20T07:47:15;7.70;99.90
18930;DHT22;43305;52.186;5.598;2023-12-20T07:49:48;7.70;99.90
18930;DHT22;43305;52.186;5.598;2023-12-20T07:52:15;7.70;99.90
18930;DHT22;43305;52.186;5.598;2023-12-20T07:54:41;7.70;99.90
18930;DHT22;43305;52.186;5.598;2023-12-20T07:57:08;7.70;99.90
18930;DHT22;43305;52.186;5.598;2023-12-20T07:59:36;7.70;99.90
18930;DHT22;43305;52.186;5.598;2023-12-20T08:02:05;7.80;99.90
18930;DHT22;43305;52.186;5.598;2023-12-20T08:04:32;7.70;99.90
18930;DHT22;43305;52.186;5.598;2023-12-20T08:07:01;7.70;99.90
18930;DHT22;43305;52.186;5.598;2023-12-20T08:09:32;7.80;99.90
18930;DHT22;43305;52.186;5.598;2023-12-20T08:11:59;7.80;99.90
18930;DHT22;43305;52.186;5.598;2023-12-20T08:14:26;7.80;99.90
18930;DHT22;43305;52.186;5.598;2023-12-20T08:16:53;7.80;99.90
18930;DHT22;43305;52.186;5.598;2023-12-20T08:19:20;7.90;99.90
18930;DHT22;43305;52.186;5.598;2023-12-20T08:21:49;7.90;99.90
18930;DHT22;43305;52.186;5.598;2023-12-20T08:24:17;7.90;99.90
18930;DHT22;43305;52.186;5.598;2023-12-20T08:26:43;7.90;99.90
18930;DHT22;43305;52.186;5.598;2023-12-20T08:29:12;7.90;99.90
18930;DHT22;43305;52.186;5.598;2023-12-20T08:31:39;7.90;99.90
18930;DHT22;43305;52.186;5.598;2023-12-20T08:34:06;7.90;99.90
18930;DHT22;43305;52.186;5.598;2023-12-20T08:36:33;7.90;99.90
18930;DHT22;43305;52.186;5.598;2023-12-20T08:38:59;7.90;99.90
18930;DHT22;43305;52.186;5.598;2023-12-20T08:41:28;7.90;99.90
18930;DHT22;43305;52.186;5.598;2023-12-20T08:43:55;7.90;99.90
18930;DHT22;43305;52.186;5.598;2023-12-20T08:46:25;7.90;99.90
18930;DHT22;43305;52.186;5.598;2023-12-20T08:48:52;7.90;99.90
18930;DHT22;43305;52.186;5.598;2023-12-20T08:51:18;8.00;99.90
18930;DHT22;43305;52.186;5.598;2023-12-20T08:53:47;7.90;99.90
18930;DHT22;43305;52.186;5.598;2023-12-20T08:56:14;7.90;99.90
18930;DHT22;43305;52.186;5.598;2023-12-20T08:58:43;7.90;99.90
18930;DHT22;43305;52.186;5.598;2023-12-20T09:01:10;7.90;99.90
18930;DHT22;43305;52.186;5.598;2023-12-20T09:03:37;7.90;99.90
18930;DHT22;43305;52.186;5.598;2023-12-20T09:06:04;7.90;99.90
18930;DHT22;43305;52.186;5.598;2023-12-20T09:08:31;7.80;99.90
18930;DHT22;43305;52.186;5.598;2023-12-20T09:10:57;7.80;99.90
18930;DHT22;43305;52.186;5.598;2023-12-20T09:13:24;7.80;99.90
18930;DHT22;43305;52.186;5.598;2023-12-20T09:15:55;7.80;99.90
18930;DHT22;43305;52.186;5.598;2023-12-20T09:18:24;7.80;99.90
18930;DHT22;43305;52.186;5.598;2023-12-20T09:20:52;7.70;99.90
18930;DHT22;43305;52.186;5.598;2023-12-20T09:23:19;7.80;99.90
18930;DHT22;43305;52.186;5.598;2023-12-20T09:25:45;7.70;99.90
18930;DHT22;43305;52.186;5.598;2023-12-20T09:28:12;7.80;99.90
18930;DHT22;43305;52.186;5.598;2023-12-20T09:30:39;7.70;99.90
18930;DHT22;43305;52.186;5.598;2023-12-20T09:33:07;7.80;99.90
18930;DHT22;43305;52.186;5.598;2023-12-20T09:35:34;7.80;99.90
18930;DHT22;43305;52.186;5.598;2023-12-20T09:38:01;7.80;99.90
18930;DHT22;43305;52.186;5.598;2023-12-20T09:40:29;7.80;99.90
18930;DHT22;43305;52.186;5.598;2023-12-20T09:43:03;7.90;99.90
18930;DHT22;43305;52.186;5.598;2023-12-20T09:45:31;7.90;99.90
18930;DHT22;43305;52.186;5.598;2023-12-20T09:47:58;7.90;99.90
18930;DHT22;43305;52.186;5.598;2023-12-20T09:50:26;7.90;99.90
18930;DHT22;43305;52.186;5.598;2023-12-20T09:52:57;8.00;99.90
18930;DHT22;43305;52.186;5.598;2023-12-20T09:55:25;8.10;99.90
18930;DHT22;43305;52.186;5.598;2023-12-20T09:57:55;8.10;99.90
18930;DHT22;43305;52.186;5.598;2023-12-20T10:00:24;8.20;99.90
18930;DHT22;43305;52.186;5.598;2023-12-20T10:02:57;8.30;99.90
18930;DHT22;43305;52.186;5.598;2023-12-20T10:05:28;8.40;99.90
18930;DHT22;43305;52.186;5.598;2023-12-20T10:07:55;8.60;99.90
18930;DHT22;43305;52.186;5.598;2023-12-20T10:10:22;8.80;99.90
18930;DHT22;43305;52.186;5.598;2023-12-20T10:13:02;8.80;99.90
18930;DHT22;43305;52.186;5.598;2023-12-20T10:15:29;8.80;99.90
18930;DHT22;43305;52.186;5.598;2023-12-20T10:17:56;8.80;99.90
18930;DHT22;43305;52.186;5.598;2023-12-20T10:20:23;8.90;99.90
18930;DHT22;43305;52.186;5.598;2023-12-20T11:09:02;9.00;99.90
18930;DHT22;43305;52.186;5.598;2023-12-20T11:11:40;9.00;99.90
18930;DHT22;43305;52.186;5.598;2023-12-20T11:14:16;9.00;99.90
18930;DHT22;43305;52.186;5.598;2023-12-20T11:16:45;9.00;99.90
18930;DHT22;43305;52.186;5.598;2023-12-20T11:19:12;9.00;99.90
18930;DHT22;43305;52.186;5.598;2023-12-20T11:21:39;9.00;99.90
18930;DHT22;43305;52.186;5.598;2023-12-20T11:24:08;9.00;99.90
18930;DHT22;43305;52.186;5.598;2023-12-20T11:26:36;9.10;99.90
18930;DHT22;43305;52.186;5.598;2023-12-20T11:29:31;9.20;99.90
18930;DHT22;43305;52.186;5.598;2023-12-20T11:32:00;9.30;99.90
18930;DHT22;43305;52.186;5.598;2023-12-20T11:34:28;9.40;99.90
18930;DHT22;43305;52.186;5.598;2023-12-20T12:42:14;9.50;99.90
18930;DHT22;43305;52.186;5.598;2023-12-20T12:44:40;9.60;99.90
18930;DHT22;43305;52.186;5.598;2023-12-20T12:47:07;9.60;99.90
18930;DHT22;43305;52.186;5.598;2023-12-20T12:49:34;9.60;99.90
18930;DHT22;43305;52.186;5.598;2023-12-20T12:52:01;9.60;99.90
18930;DHT22;43305;52.186;5.598;2023-12-20T12:54:28;9.60;99.90
18930;DHT22;43305;52.186;5.598;2023-12-20T12:56:55;9.50;99.90
18930;DHT22;43305;52.186;5.598;2023-12-20T12:59:25;9.50;99.90
18930;DHT22;43305;52.186;5.598;2023-12-20T13:01:52;9.50;99.90
18930;DHT22;43305;52.186;5.598;2023-12-20T13:04:19;9.50;99.90
18930;DHT22;43305;52.186;5.598;2023-12-20T13:06:46;9.40;99.90
18930;DHT22;43305;52.186;5.598;2023-12-20T13:09:14;9.40;99.90
18930;DHT22;43305;52.186;5.598;2023-12-20T13:11:41;9.30;99.90
18930;DHT22;43305;52.186;5.598;2023-12-20T13:14:08;9.30;99.90
18930;DHT22;43305;52.186;5.598;2023-12-20T13:16:41;9.30;99.90
18930;DHT22;43305;52.186;5.598;2023-12-20T13:19:08;9.30;99.90
18930;DHT22;43305;52.186;5.598;2023-12-20T13:21:35;9.30;99.90
18930;DHT22;43305;52.186;5.598;2023-12-20T13:24:02;9.20;99.90
18930;DHT22;43305;52.186;5.598;2023-12-20T13:26:29;9.20;99.90
18930;DHT22;43305;52.186;5.598;2023-12-20T13:28:56;9.20;99.90
18930;DHT22;43305;52.186;5.598;2023-12-20T13:31:23;9.20;99.90
18930;DHT22;43305;52.186;5.598;2023-12-20T13:33:51;9.20;99.90
18930;DHT22;43305;52.186;5.598;2023-12-20T13:36:21;9.20;99.90
18930;DHT22;43305;52.186;5.598;2023-12-20T13:38:51;9.20;99.90
18930;DHT22;43305;52.186;5.598;2023-12-20T13:41:21;9.20;99.90
18930;DHT22;43305;52.186;5.598;2023-12-20T13:43:51;9.20;99.90
18930;DHT22;43305;52.186;5.598;2023-12-20T13:46:20;9.10;99.90
18930;DHT22;43305;52.186;5.598;2023-12-20T13:48:47;9.10;99.90
18930;DHT22;43305;52.186;5.598;2023-12-20T13:51:20;9.10;99.90
18930;DHT22;43305;52.186;5.598;2023-12-20T13:53:48;9.10;99.90
18930;DHT22;43305;52.186;5.598;2023-12-20T13:56:18;9.10;99.90
18930;DHT22;43305;52.186;5.598;2023-12-20T13:58:45;9.10;99.90
18930;DHT22;43305;52.186;5.598;2023-12-20T14:01:13;9.10;99.90
18930;DHT22;43305;52.186;5.598;2023-12-20T14:03:40;9.20;99.90
18930;DHT22;43305;52.186;5.598;2023-12-20T14:06:07;9.20;99.90
18930;DHT22;43305;52.186;5.598;2023-12-20T14:08:35;9.20;99.90
18930;DHT22;43305;52.186;5.598;2023-12-20T14:11:03;9.20;99.90
18930;DHT22;43305;52.186;5.598;2023-12-20T14:13:29;9.20;99.90
18930;DHT22;43305;52.186;5.598;2023-12-20T14:15:56;9.10;99.90
18930;DHT22;43305;52.186;5.598;2023-12-20T14:18:26;9.20;99.90
18930;DHT22;43305;52.186;5.598;2023-12-20T14:20:53;9.10;99.90
18930;DHT22;43305;52.186;5.598;2023-12-20T14:23:20;9.10;99.90
18930;DHT22;43305;52.186;5.598;2023-12-20T14:25:49;9.10;99.90
18930;DHT22;43305;52.186;5.598;2023-12-20T14:28:16;9.10;99.90
18930;DHT22;43305;52.186;5.598;2023-12-20T14:30:43;9.10;99.90
18930;DHT22;43305;52.186;5.598;2023-12-20T14:33:10;9.10;99.90
18930;DHT22;43305;52.186;5.598;2023-12-20T14:35:37;9.10;99.90
18930;DHT22;43305;52.186;5.598;2023-12-20T14:38:04;9.10;99.90
18930;DHT22;43305;52.186;5.598;2023-12-20T14:40:31;9.10;99.90
18930;DHT22;43305;52.186;5.598;2023-12-20T14:42:59;9.10;99.90
18930;DHT22;43305;52.186;5.598;2023-12-20T14:45:27;9.10;99.90
18930;DHT22;43305;52.186;5.598;2023-12-20T14:47:54;9.10;99.90
18930;DHT22;43305;52.186;5.598;2023-12-20T14:50:21;9.10;99.90
18930;DHT22;43305;52.186;5.598;2023-12-20T14:52:51;9.10;99.90
18930;DHT22;43305;52.186;5.598;2023-12-20T14:55:19;9.10;99.90
18930;DHT22;43305;52.186;5.598;2023-12-20T14:57:47;9.10;99.90
18930;DHT22;43305;52.186;5.598;2023-12-20T15:00:17;9.00;99.90
18930;DHT22;43305;52.186;5.598;2023-12-20T15:02:45;9.10;99.90
18930;DHT22;43305;52.186;5.598;2023-12-20T15:05:15;9.00;99.90
18930;DHT22;43305;52.186;5.598;2023-12-20T15:07:46;9.00;99.90
18930;DHT22;43305;52.186;5.598;2023-12-20T15:10:14;9.00;99.90
18930;DHT22;43305;52.186;5.598;2023-12-20T15:12:44;9.00;99.90
18930;DHT22;43305;52.186;5.598;2023-12-20T15:15:13;9.00;99.90
18930;DHT22;43305;52.186;5.598;2023-12-20T15:17:42;9.00;99.90
18930;DHT22;43305;52.186;5.598;2023-12-20T15:20:15;9.00;99.90
18930;DHT22;43305;52.186;5.598;2023-12-20T15:22:42;9.00;99.90
18930;DHT22;43305;52.186;5.598;2023-12-20T15:25:11;9.00;99.90
18930;DHT22;43305;52.186;5.598;2023-12-20T15:27:45;9.00;99.90
18930;DHT22;43305;52.186;5.598;2023-12-20T15:30:14;8.90;99.90
18930;DHT22;43305;52.186;5.598;2023-12-20T15:32:45;8.90;99.90
18930;DHT22;43305;52.186;5.598;2023-12-20T15:35:13;8.90;99.90
18930;DHT22;43305;52.186;5.598;2023-12-20T15:37:39;8.90;99.90
18930;DHT22;43305;52.186;5.598;2023-12-20T15:40:08;8.90;99.90
18930;DHT22;43305;52.186;5.598;2023-12-20T15:42:36;8.90;99.90
18930;DHT22;43305;52.186;5.598;2023-12-20T15:45:05;8.90;99.90
18930;DHT22;43305;52.186;5.598;2023-12-20T15:47:32;8.80;99.90
18930;DHT22;43305;52.186;5.598;2023-12-20T15:50:00;8.80;99.90
18930;DHT22;43305;52.186;5.598;2023-12-20T15:52:27;8.80;99.90
18930;DHT22;43305;52.186;5.598;2023-12-20T15:54:54;8.80;99.90
18930;DHT22;43305;52.186;5.598;2023-12-20T15:57:21;8.80;99.90
18930;DHT22;43305;52.186;5.598;2023-12-20T15:59:48;8.80;99.90
18930;DHT22;43305;52.186;5.598;2023-12-20T16:02:16;8.80;99.90
18930;DHT22;43305;52.186;5.598;2023-12-20T16:04:46;8.70;99.90
18930;DHT22;43305;52.186;5.598;2023-12-20T16:07:14;8.70;99.90
18930;DHT22;43305;52.186;5.598;2023-12-20T16:09:41;8.70;99.90
18930;DHT22;43305;52.186;5.598;2023-12-20T16:12:07;8.70;99.90
18930;DHT22;43305;52.186;5.598;2023-12-20T16:14:35;8.70;99.90
18930;DHT22;43305;52.186;5.598;2023-12-20T16:17:03;8.70;99.90
18930;DHT22;43305;52.186;5.598;2023-12-20T16:19:31;8.60;99.90
18930;DHT22;43305;52.186;5.598;2023-12-20T16:21:57;8.60;99.90
18930;DHT22;43305;52.186;5.598;2023-12-20T16:24:26;8.60;99.90
18930;DHT22;43305;52.186;5.598;2023-12-20T16:26:53;8.60;99.90
18930;DHT22;43305;52.186;5.598;2023-12-20T16:29:20;8.60;99.90
18930;DHT22;43305;52.186;5.598;2023-12-20T16:31:46;8.70;99.90
18930;DHT22;43305;52.186;5.598;2023-12-20T16:34:16;8.60;99.90
18930;DHT22;43305;52.186;5.598;2023-12-20T16:36:51;8.60;99.90
18930;DHT22;43305;52.186;5.598;2023-12-20T16:39:19;8.60;99.90
18930;DHT22;43305;52.186;5.598;2023-12-20T16:41:47;8.60;99.90
18930;DHT22;43305;52.186;5.598;2023-12-20T16:44:14;8.60;99.90
18930;DHT22;43305;52.186;5.598;2023-12-20T16:46:42;8.60;99.90
18930;DHT22;43305;52.186;5.598;2023-12-20T16:49:09;8.60;99.90
18930;DHT22;43305;52.186;5.598;2023-12-20T16:51:37;8.60;99.90
18930;DHT22;43305;52.186;5.598;2023-12-20T16:54:04;8.60;99.90
18930;DHT22;43305;52.186;5.598;2023-12-20T16:56:30;8.50;99.90
18930;DHT22;43305;52.186;5.598;2023-12-20T16:58:59;8.50;99.90
18930;DHT22;43305;52.186;5.598;2023-12-20T17:01:26;8.50;99.90
18930;DHT22;43305;52.186;5.598;2023-12-20T17:03:54;8.50;99.90
18930;DHT22;43305;52.186;5.598;2023-12-20T17:06:24;8.50;99.90
18930;DHT22;43305;52.186;5.598;2023-12-20T17:08:52;8.50;99.90
18930;DHT22;43305;52.186;5.598;2023-12-20T17:11:19;8.50;99.90
18930;DHT22;43305;52.186;5.598;2023-12-20T17:13:47;8.40;99.90
18930;DHT22;43305;52.186;5.598;2023-12-20T17:16:15;8.50;99.90
18930;DHT22;43305;52.186;5.598;2023-12-20T17:18:42;8.40;99.90
18930;DHT22;43305;52.186;5.598;2023-12-20T17:21:14;8.40;99.90
18930;DHT22;43305;52.186;5.598;2023-12-20T17:23:41;8.40;99.90
18930;DHT22;43305;52.186;5.598;2023-12-20T17:26:08;8.40;99.90
18930;DHT22;43305;52.186;5.598;2023-12-20T17:28:34;8.40;99.90
18930;DHT22;43305;52.186;5.598;2023-12-20T17:31:01;8.40;99.90
18930;DHT22;43305;52.186;5.598;2023-12-20T17:33:30;8.40;99.90
18930;DHT22;43305;52.186;5.598;2023-12-20T17:35:57;8.40;99.90
18930;DHT22;43305;52.186;5.598;2023-12-20T17:38:24;8.40;99.90
18930;DHT22;43305;52.186;5.598;2023-12-20T17:40:53;8.40;99.90